Holstein, Nebraska
Current Conditions -  °F | °C
As of 11:53 AM on Friday 24 Oct 2014 (Local Time) from KHSI Reporting Station
Clear Clear  
Wind Chill: 65°   Ceiling: Unl
Heat Index: 65°   Visibility: 10mi
Dew Point: 51°   Wind: 9mph
Humidity: 61%   Direction: 250°WSW
Pressure: 29.98"   Gusts: NA
Location:  40.47°N, 98.65°W
Report Text: KHSI 241653Z AUTO 25008KT 10SM CLR 18/11 A2998 RMK AO2 SLP145 T01830106
Loading
Personal Weather Stations






























Interactive Weather Map
Tropical Storm Tracking
New forecast layout! Learn more

10-Day Weather Forecast

Advertisements
Track Severe Weather on mobile